Time;durP1;ratioP1;P1;durP2;ratioP2;P2;SDS_P1;SDS_P2;PMS_P1;PMS_P2;Temp;Humidity;BMP_temperature;BMP_pressure;BME280_temperature;BME280_humidity;BME280_pressure;Samples;Min_cycle;Max_cycle;Signal;HPM_P1;HPM_P2
2022/04/23 00:00:09;;;;;;;23.70;20.40;;;13.20;65.20;;;;;;5019159;28;20386;-81
2022/04/23 00:02:35;;;;;;;23.63;20.98;;;13.20;65.30;;;;;;5010933;28;20042;-80
2022/04/23 00:05:01;;;;;;;22.23;19.70;;;13.30;65.10;;;;;;5015477;28;20041;-80
2022/04/23 00:07:27;;;;;;;22.42;20.02;;;13.20;65.30;;;;;;5030806;28;20033;-79
2022/04/23 00:09:53;;;;;;;23.85;20.27;;;13.10;65.50;;;;;;5036683;28;20059;-79
2022/04/23 00:12:19;;;;;;;23.25;20.70;;;13.20;65.50;;;;;;5031745;28;20473;-80
2022/04/23 00:14:45;;;;;;;23.00;20.40;;;13.10;65.60;;;;;;5018855;28;20099;-81
2022/04/23 00:17:10;;;;;;;25.38;20.27;;;13.10;65.70;;;;;;5020856;28;20037;-81
2022/04/23 00:19:36;;;;;;;23.38;20.02;;;13.20;65.60;;;;;;5015837;28;20068;-80
2022/04/23 00:22:02;;;;;;;24.73;21.48;;;13.20;65.60;;;;;;5016278;28;20774;-81
2022/04/23 00:24:28;;;;;;;24.58;20.40;;;13.20;65.80;;;;;;5009300;28;20034;-81
2022/04/23 00:26:53;;;;;;;24.52;20.75;;;13.10;65.80;;;;;;5016766;28;20069;-79
2022/04/23 00:29:19;;;;;;;26.27;20.35;;;13.10;66.00;;;;;;5014798;28;20073;-81
2022/04/23 00:31:45;;;;;;;23.92;20.95;;;13.00;66.30;;;;;;5030520;28;20511;-81
2022/04/23 00:34:11;;;;;;;23.25;20.63;;;13.00;66.30;;;;;;5019893;28;20111;-81
2022/04/23 00:36:36;;;;;;;24.90;20.23;;;13.00;66.30;;;;;;5025045;28;20361;-80
2022/04/23 00:39:05;;;;;;;26.20;21.88;;;13.00;66.30;;;;;;5021988;28;20048;-80
2022/04/23 00:41:51;;;;;;;24.77;21.45;;;13.00;66.50;;;;;;5014248;28;20041;-81
2022/04/23 00:44:18;;;;;;;24.70;21.35;;;13.00;66.80;;;;;;5015034;28;20029;-80
2022/04/23 00:46:45;;;;;;;25.65;21.33;;;12.90;66.80;;;;;;5021208;28;20477;-80
2022/04/23 00:49:11;;;;;;;26.50;20.92;;;12.90;66.90;;;;;;5017777;28;20287;-81
2022/04/23 00:51:39;;;;;;;24.65;21.23;;;12.90;67.20;;;;;;5014278;28;20159;-79
2022/04/23 00:54:07;;;;;;;24.13;21.52;;;12.90;67.10;;;;;;5021032;28;20148;-79
2022/04/23 00:56:38;;;;;;;23.65;21.15;;;12.80;67.20;;;;;;5021273;28;20442;-81
2022/04/23 00:59:11;;;;;;;23.50;20.88;;;12.80;67.30;;;;;;5022123;28;20053;-81
2022/04/23 01:01:40;;;;;;;25.77;21.63;;;12.80;67.40;;;;;;5015420;28;20370;-79
2022/04/23 01:04:06;;;;;;;26.02;20.55;;;12.70;67.50;;;;;;5016946;28;20029;-80
2022/04/23 01:06:34;;;;;;;24.27;21.42;;;12.70;67.60;;;;;;5017694;28;20041;-81
2022/04/23 01:09:07;;;;;;;25.33;20.63;;;12.60;67.80;;;;;;5024291;28;20464;-81
2022/04/23 01:11:34;;;;;;;23.67;21.17;;;12.60;67.90;;;;;;5015764;28;20068;-81
2022/04/23 01:14:03;;;;;;;26.45;21.85;;;12.60;68.00;;;;;;5017474;28;20046;-80
2022/04/23 01:16:29;;;;;;;23.95;20.58;;;12.60;68.10;;;;;;5019195;28;20368;-81
2022/04/23 01:18:55;;;;;;;26.20;21.98;;;12.60;68.10;;;;;;5014116;28;20382;-81
2022/04/23 01:21:21;;;;;;;24.73;20.98;;;12.50;68.30;;;;;;5025926;28;20052;-81
2022/04/23 01:23:49;;;;;;;25.60;22.00;;;12.50;68.60;;;;;;5015378;28;20038;-80
2022/04/23 01:26:29;;;;;;;25.05;22.02;;;12.40;68.70;;;;;;5018290;28;20174;-81
2022/04/23 01:28:55;;;;;;;25.67;21.02;;;12.50;68.60;;;;;;5008200;28;20042;-80
2022/04/23 01:31:21;;;;;;;24.45;21.23;;;12.40;68.60;;;;;;5023336;28;20049;-79
2022/04/23 01:33:47;;;;;;;23.23;20.77;;;12.40;68.90;;;;;;5020402;28;20103;-80
2022/04/23 01:36:14;;;;;;;25.38;20.50;;;12.40;69.00;;;;;;5014975;28;20038;-81
2022/04/23 01:38:44;;;;;;;25.70;21.60;;;12.30;69.00;;;;;;5019692;28;20081;-81
2022/04/23 01:41:09;;;;;;;25.48;22.35;;;12.30;69.00;;;;;;5024728;28;20072;-81
2022/04/23 01:43:35;;;;;;;24.73;21.77;;;12.20;69.40;;;;;;5016405;28;20050;-81
2022/04/23 01:46:01;;;;;;;27.50;21.80;;;12.10;69.70;;;;;;5017021;28;20037;-80
2022/04/23 01:48:27;;;;;;;24.42;21.77;;;12.10;69.80;;;;;;5020471;28;20037;-80
2022/04/23 01:50:53;;;;;;;25.40;22.52;;;12.00;70.10;;;;;;5022602;28;20064;-80
2022/04/23 01:53:21;;;;;;;26.58;21.75;;;12.00;70.40;;;;;;5018074;28;20029;-81
2022/04/23 01:55:46;;;;;;;28.42;21.45;;;12.10;70.40;;;;;;5016012;28;20061;-81
2022/04/23 01:58:12;;;;;;;25.85;22.33;;;12.00;70.40;;;;;;5021220;28;20121;-80
2022/04/23 02:00:37;;;;;;;27.10;22.13;;;12.00;70.40;;;;;;5022297;28;20604;-80
2022/04/23 02:03:04;;;;;;;26.02;22.20;;;11.90;70.70;;;;;;5018745;28;20053;-81
2022/04/23 02:05:30;;;;;;;25.27;22.17;;;11.90;70.80;;;;;;5021003;28;20041;-80
2022/04/23 02:07:55;;;;;;;24.02;20.23;;;11.90;70.80;;;;;;5019535;28;20040;-81
2022/04/23 02:10:21;;;;;;;28.88;22.33;;;11.90;70.80;;;;;;5021015;28;20694;-80
2022/04/23 02:12:46;;;;;;;25.80;22.60;;;12.00;70.80;;;;;;5016591;28;20034;-80
2022/04/23 02:15:14;;;;;;;25.48;21.77;;;12.00;70.80;;;;;;5024067;28;20045;-80
2022/04/23 02:17:42;;;;;;;26.52;22.17;;;12.00;70.70;;;;;;5022233;28;20062;-79
2022/04/23 02:20:13;;;;;;;26.40;22.63;;;12.00;70.70;;;;;;5012883;28;20061;-79
2022/04/23 02:22:39;;;;;;;26.13;21.95;;;12.00;70.70;;;;;;5022056;28;20144;-79
2022/04/23 02:25:06;;;;;;;25.88;22.63;;;12.00;70.60;;;;;;5024819;28;20029;-80
2022/04/23 02:27:45;;;;;;;27.85;22.80;;;12.00;70.60;;;;;;5023597;28;20476;-80
2022/04/23 02:30:19;;;;;;;24.88;22.20;;;12.00;70.50;;;;;;5015544;28;20068;-80
2022/04/23 02:32:46;;;;;;;26.13;22.60;;;12.00;70.70;;;;;;5021162;28;20145;-79
2022/04/23 02:35:14;;;;;;;27.70;23.30;;;12.00;70.70;;;;;;5023180;28;20029;-80
2022/04/23 02:37:42;;;;;;;26.23;23.40;;;12.10;70.60;;;;;;5028448;28;20037;-78
2022/04/23 02:40:08;;;;;;;26.00;22.55;;;12.00;70.70;;;;;;5014953;28;20041;-81
2022/04/23 02:42:37;;;;;;;26.15;22.88;;;12.00;70.90;;;;;;5020914;28;20393;-80
2022/04/23 02:45:06;;;;;;;25.23;22.55;;;12.00;70.90;;;;;;5027592;28;20025;-80
2022/04/23 02:47:43;;;;;;;26.73;23.73;;;12.00;71.00;;;;;;5024566;28;20084;-79
2022/04/23 02:50:12;;;;;;;26.88;24.02;;;12.00;71.00;;;;;;5017259;28;20153;-79
2022/04/23 02:52:44;;;;;;;28.00;24.15;;;12.00;70.90;;;;;;5027762;28;20561;-78
2022/04/23 02:55:11;;;;;;;27.52;23.92;;;12.10;70.90;;;;;;5019399;28;20037;-80
2022/04/23 02:57:39;;;;;;;27.40;24.40;;;12.10;71.00;;;;;;5019591;28;20037;-80
2022/04/23 03:00:10;;;;;;;28.83;24.65;;;12.10;71.10;;;;;;5027518;28;20484;-78
2022/04/23 03:02:36;;;;;;;28.00;24.75;;;12.10;71.00;;;;;;5019700;28;20041;-81
2022/04/23 03:05:07;;;;;;;28.75;25.75;;;12.10;71.20;;;;;;5020968;28;20041;-79
2022/04/23 03:07:35;;;;;;;28.92;25.80;;;12.00;71.30;;;;;;5026595;28;20061;-81
2022/04/23 03:10:02;;;;;;;31.10;27.30;;;11.90;71.60;;;;;;5021232;28;20049;-79
2022/04/23 03:12:27;;;;;;;31.60;26.20;;;11.90;71.80;;;;;;5013685;28;20053;-80
2022/04/23 03:14:53;;;;;;;32.58;26.63;;;11.80;72.00;;;;;;5022148;28;20392;-80
2022/04/23 03:17:19;;;;;;;30.58;27.10;;;11.80;72.30;;;;;;5020949;28;20061;-80
2022/04/23 03:19:46;;;;;;;29.90;26.77;;;11.80;72.60;;;;;;5026204;28;20480;-79
2022/04/23 03:22:15;;;;;;;31.77;27.40;;;11.70;72.60;;;;;;5013764;28;20485;-80
2022/04/23 03:24:41;;;;;;;31.30;28.00;;;11.70;72.70;;;;;;5022909;28;20045;-81
2022/04/23 03:27:07;;;;;;;32.95;27.65;;;11.70;72.60;;;;;;5019010;28;20044;-81
2022/04/23 03:29:34;;;;;;;33.53;29.33;;;11.70;72.80;;;;;;5019361;28;20394;-80
2022/04/23 03:31:59;;;;;;;31.67;28.38;;;11.70;73.00;;;;;;5017004;28;20038;-81
2022/04/23 03:34:25;;;;;;;32.05;28.23;;;11.60;73.30;;;;;;5022475;28;20632;-81
2022/04/23 03:36:51;;;;;;;32.85;29.33;;;11.60;73.50;;;;;;5014836;28;20104;-81
2022/04/23 03:39:16;;;;;;;32.70;29.00;;;11.60;73.50;;;;;;5011272;28;20030;-81
2022/04/23 03:41:44;;;;;;;33.10;29.42;;;11.60;73.60;;;;;;5026346;28;20065;-81
2022/04/23 03:44:09;;;;;;;37.25;30.23;;;11.60;73.70;;;;;;5015701;28;20454;-80
2022/04/23 03:46:35;;;;;;;36.90;29.40;;;11.50;73.80;;;;;;5019384;28;20033;-81
2022/04/23 03:49:00;;;;;;;35.25;30.10;;;11.50;74.00;;;;;;5014418;28;20038;-78
2022/04/23 03:51:26;;;;;;;33.70;30.15;;;11.50;74.10;;;;;;5020522;28;20099;-81
2022/04/23 03:53:51;;;;;;;33.95;30.27;;;11.50;74.20;;;;;;5016069;28;20037;-82
2022/04/23 03:56:18;;;;;;;33.78;30.27;;;11.50;74.20;;;;;;5013477;28;20767;-80
2022/04/23 03:58:44;;;;;;;35.33;30.65;;;11.50;74.10;;;;;;5019173;28;20061;-81
2022/04/23 04:01:10;;;;;;;36.88;31.08;;;11.40;74.30;;;;;;5026855;28;20041;-80
2022/04/23 04:03:36;;;;;;;35.00;31.00;;;11.50;74.30;;;;;;5044038;28;20140;-79
2022/04/23 04:06:01;;;;;;;36.33;31.13;;;11.50;74.40;;;;;;5040591;28;20081;-80
2022/04/23 04:08:27;;;;;;;37.53;31.27;;;11.50;74.50;;;;;;5023076;28;20037;-81
2022/04/23 04:10:53;;;;;;;33.47;29.88;;;11.50;74.40;;;;;;5015411;28;20132;-81
2022/04/23 04:13:18;;;;;;;35.58;31.40;;;11.50;74.50;;;;;;5016058;28;20048;-81
2022/04/23 04:15:46;;;;;;;36.03;30.52;;;11.50;74.60;;;;;;5020804;28;20045;-79
2022/04/23 04:18:12;;;;;;;34.30;30.73;;;11.40;74.70;;;;;;5010348;28;20042;-81
2022/04/23 04:20:39;;;;;;;34.88;31.23;;;11.50;74.60;;;;;;5021441;28;20041;-80
2022/04/23 04:23:06;;;;;;;36.90;32.20;;;11.50;74.60;;;;;;5020324;28;20048;-80
2022/04/23 04:25:31;;;;;;;34.65;30.98;;;11.50;74.60;;;;;;5012321;28;20485;-80
2022/04/23 04:28:00;;;;;;;36.70;31.27;;;11.50;74.40;;;;;;5015409;28;20041;-80
2022/04/23 04:30:26;;;;;;;36.25;32.45;;;11.50;74.40;;;;;;5016674;28;20231;-79
2022/04/23 04:32:51;;;;;;;36.13;32.33;;;11.40;74.60;;;;;;5019080;28;20045;-81
2022/04/23 04:35:17;;;;;;;35.83;31.90;;;11.50;74.60;;;;;;5017023;28;20093;-80
2022/04/23 04:37:44;;;;;;;38.33;32.58;;;11.40;74.80;;;;;;5022650;28;20473;-81
2022/04/23 04:40:11;;;;;;;37.72;31.80;;;11.40;74.90;;;;;;5020295;28;20106;-80
2022/04/23 04:42:37;;;;;;;35.40;31.65;;;11.30;74.90;;;;;;5018621;28;20033;-78
2022/04/23 04:45:03;;;;;;;35.63;31.90;;;11.30;75.00;;;;;;5020253;28;20092;-80
2022/04/23 04:47:29;;;;;;;39.85;32.13;;;11.30;75.10;;;;;;5009540;28;20049;-81
2022/04/23 04:49:55;;;;;;;34.78;30.95;;;11.30;75.10;;;;;;5019775;28;20033;-80
2022/04/23 04:52:21;;;;;;;36.15;32.20;;;11.40;74.90;;;;;;5014580;28;20049;-80
2022/04/23 04:54:47;;;;;;;36.13;32.20;;;11.30;75.30;;;;;;5019656;28;20086;-80
2022/04/23 04:57:12;;;;;;;37.92;32.95;;;11.30;75.30;;;;;;5017850;28;20033;-78
2022/04/23 04:59:39;;;;;;;36.08;31.08;;;11.30;75.10;;;;;;5017298;28;20045;-81
2022/04/23 05:02:05;;;;;;;35.03;30.25;;;11.30;75.10;;;;;;5016976;28;20369;-80
2022/04/23 05:04:31;;;;;;;37.08;32.90;;;11.30;75.20;;;;;;5021064;28;20034;-81
2022/04/23 05:06:57;;;;;;;36.03;30.70;;;11.40;75.00;;;;;;5008555;28;20034;-80
2022/04/23 05:09:23;;;;;;;36.28;32.40;;;11.40;75.00;;;;;;5018997;28;20095;-81
2022/04/23 05:11:49;;;;;;;34.83;31.02;;;11.40;75.00;;;;;;5018700;28;21157;-80
2022/04/23 05:14:16;;;;;;;35.20;31.33;;;11.40;75.00;;;;;;5018672;28;20025;-80
2022/04/23 05:16:43;;;;;;;34.42;30.73;;;11.40;74.90;;;;;;5014989;28;20124;-80
2022/04/23 05:19:09;;;;;;;36.63;32.60;;;11.50;74.80;;;;;;5025466;28;20044;-80
2022/04/23 05:21:34;;;;;;;36.03;32.22;;;11.50;74.70;;;;;;5023804;28;20038;-80
2022/04/23 05:24:00;;;;;;;36.15;32.15;;;11.50;74.60;;;;;;5025962;28;20041;-80
2022/04/23 05:26:26;;;;;;;36.92;30.92;;;11.60;74.50;;;;;;5021754;28;20102;-81
2022/04/23 05:28:51;;;;;;;35.60;31.70;;;11.60;74.30;;;;;;5027072;28;20444;-80
2022/04/23 05:31:17;;;;;;;35.28;30.75;;;11.60;74.30;;;;;;5021207;28;20041;-79
2022/04/23 05:33:42;;;;;;;35.28;31.67;;;11.50;74.30;;;;;;5022531;28;20038;-80
2022/04/23 05:36:08;;;;;;;36.35;31.98;;;11.50;74.30;;;;;;5026622;28;20033;-79
2022/04/23 05:38:37;;;;;;;35.25;31.17;;;11.60;74.20;;;;;;5021345;28;20040;-80
2022/04/23 05:41:04;;;;;;;34.38;30.73;;;11.60;73.90;;;;;;5018602;28;20141;-81
2022/04/23 05:43:30;;;;;;;35.20;31.13;;;11.70;73.80;;;;;;5021821;28;20071;-79
2022/04/23 05:45:57;;;;;;;34.10;30.40;;;11.70;73.50;;;;;;5018201;28;20034;-78
2022/04/23 05:48:23;;;;;;;35.03;31.23;;;11.70;73.70;;;;;;5018964;28;20057;-80
2022/04/23 05:50:49;;;;;;;34.63;30.92;;;11.80;73.20;;;;;;5020287;28;20069;-80
2022/04/23 05:53:15;;;;;;;33.15;29.60;;;11.90;72.90;;;;;;5018219;28;20141;-80
2022/04/23 05:55:40;;;;;;;33.05;29.45;;;12.10;72.50;;;;;;5016264;28;20072;-79
2022/04/23 05:58:06;;;;;;;33.85;30.25;;;12.10;72.20;;;;;;5015231;28;20059;-81
2022/04/23 06:00:32;;;;;;;32.83;29.35;;;12.10;71.90;;;;;;5022355;28;20511;-80
2022/04/23 06:02:57;;;;;;;32.83;29.38;;;12.20;71.80;;;;;;5023496;28;20053;-79
2022/04/23 06:05:23;;;;;;;34.15;30.52;;;12.30;71.60;;;;;;5021996;28;20044;-80
2022/04/23 06:07:49;;;;;;;33.78;29.15;;;12.20;71.30;;;;;;5022203;28;20047;-79
2022/04/23 06:10:14;;;;;;;34.05;29.88;;;12.20;71.40;;;;;;5023099;28;20401;-80
2022/04/23 06:12:40;;;;;;;33.47;29.52;;;12.20;71.40;;;;;;5020915;28;20521;-80
2022/04/23 06:15:06;;;;;;;34.28;30.60;;;12.20;71.70;;;;;;5020919;28;20030;-80
2022/04/23 06:17:32;;;;;;;33.88;30.13;;;12.20;71.20;;;;;;5025459;28;20091;-80
2022/04/23 06:19:59;;;;;;;32.13;28.02;;;12.30;71.20;;;;;;5015795;28;20529;-78
2022/04/23 06:22:25;;;;;;;36.80;29.52;;;12.40;71.20;;;;;;5019307;28;20045;-80
2022/04/23 06:24:51;;;;;;;32.10;28.67;;;12.40;70.80;;;;;;5023734;28;20029;-79
2022/04/23 06:27:17;;;;;;;33.67;29.10;;;12.60;70.60;;;;;;5019377;28;21154;-79
2022/04/23 06:29:43;;;;;;;35.47;29.83;;;12.60;70.30;;;;;;5020077;28;20141;-80
2022/04/23 06:32:10;;;;;;;33.80;28.83;;;12.60;70.20;;;;;;5022381;28;20037;-78
2022/04/23 06:34:37;;;;;;;33.20;29.60;;;12.60;70.20;;;;;;5025124;28;20040;-79
2022/04/23 06:37:03;;;;;;;36.58;29.60;;;12.70;70.00;;;;;;5022342;28;20041;-80
2022/04/23 06:39:29;;;;;;;36.58;29.13;;;12.80;69.50;;;;;;5021627;28;20029;-80
2022/04/23 06:41:54;;;;;;;34.40;29.48;;;12.80;69.30;;;;;;5027411;28;20033;-80
2022/04/23 06:44:20;;;;;;;32.47;27.63;;;12.80;69.10;;;;;;5016578;28;20123;-80
2022/04/23 06:46:45;;;;;;;33.92;29.75;;;13.00;68.90;;;;;;5011657;28;20125;-80
2022/04/23 06:49:11;;;;;;;31.45;28.08;;;13.10;68.70;;;;;;5034471;28;20123;-80
2022/04/23 06:51:37;;;;;;;32.17;28.80;;;13.10;67.70;;;;;;5021687;28;20049;-80
2022/04/23 06:54:03;;;;;;;33.20;29.20;;;13.10;68.00;;;;;;5016127;28;20037;-80
2022/04/23 06:56:30;;;;;;;34.85;28.10;;;13.00;68.00;;;;;;5011731;28;20045;-80
2022/04/23 06:58:56;;;;;;;33.55;29.33;;;13.10;68.00;;;;;;5014657;28;20069;-80
2022/04/23 07:01:22;;;;;;;32.80;29.17;;;13.40;68.10;;;;;;5014374;28;20424;-80
2022/04/23 07:03:48;;;;;;;34.63;29.40;;;13.30;67.80;;;;;;5012315;28;20041;-79
2022/04/23 07:06:15;;;;;;;32.95;29.05;;;13.40;67.80;;;;;;5013434;28;20044;-76
2022/04/23 07:08:43;;;;;;;32.63;29.02;;;13.50;67.20;;;;;;5018388;28;20025;-76
2022/04/23 07:11:09;;;;;;;31.45;27.13;;;13.50;67.20;;;;;;5020609;28;20045;-76
2022/04/23 07:13:35;;;;;;;31.70;28.30;;;13.60;66.60;;;;;;5016977;28;20033;-76
2022/04/23 07:16:03;;;;;;;30.42;27.23;;;13.80;66.30;;;;;;5014308;28;20030;-77
2022/04/23 07:18:32;;;;;;;31.17;27.80;;;13.80;65.60;;;;;;5017237;28;20473;-76
2022/04/23 07:20:58;;;;;;;32.20;28.13;;;13.90;65.70;;;;;;5015330;28;20462;-77
2022/04/23 07:26:11;;;;;;;31.67;27.08;;;14.30;65.30;;;;;;5014584;28;20045;-76
2022/04/23 07:28:37;;;;;;;30.98;27.55;;;14.40;63.80;;;;;;5010846;28;20054;-77
2022/04/23 07:31:03;;;;;;;33.20;29.25;;;14.60;63.90;;;;;;5014889;28;20784;-76
2022/04/23 07:38:57;;;;;;;38.85;28.15;;;14.90;62.70;;;;;;5017063;28;20059;-77
2022/04/23 07:41:23;;;;;;;30.35;27.20;;;15.00;63.10;;;;;;5017892;28;20042;-75
2022/04/23 07:43:49;;;;;;;29.67;26.48;;;15.10;61.90;;;;;;5018594;28;20111;-75
2022/04/23 07:46:14;;;;;;;30.65;27.02;;;15.30;61.40;;;;;;5011086;28;20046;-75
2022/04/23 07:48:40;;;;;;;29.63;26.33;;;15.40;62.20;;;;;;5009015;28;20053;-75
2022/04/23 07:51:05;;;;;;;30.23;26.67;;;15.50;60.60;;;;;;5015097;28;20152;-75
2022/04/23 07:53:31;;;;;;;28.45;25.52;;;15.60;60.40;;;;;;5014516;28;20107;-76
2022/04/23 07:55:57;;;;;;;28.75;25.75;;;15.80;59.90;;;;;;5019674;28;20038;-76
2022/04/23 07:58:23;;;;;;;28.42;25.50;;;15.80;59.70;;;;;;5010742;28;20048;-76
2022/04/23 08:00:48;;;;;;;29.50;25.75;;;15.70;60.00;;;;;;5017654;28;20048;-75
2022/04/23 08:03:15;;;;;;;29.17;25.88;;;15.80;59.60;;;;;;5016282;28;20030;-75
2022/04/23 08:05:42;;;;;;;30.33;27.02;;;15.80;58.90;;;;;;5011029;28;20124;-75
2022/04/23 08:08:07;;;;;;;28.70;25.73;;;15.70;58.90;;;;;;5020252;28;20129;-75
2022/04/23 08:10:33;;;;;;;29.05;25.92;;;15.80;59.30;;;;;;5021929;28;20045;-75
2022/04/23 08:12:59;;;;;;;28.42;25.15;;;15.90;58.70;;;;;;5023023;28;20033;-75
2022/04/23 08:15:28;;;;;;;31.17;27.35;;;16.20;59.10;;;;;;5026375;28;20582;-76
2022/04/23 08:17:54;;;;;;;28.25;25.27;;;16.20;58.00;;;;;;5018677;28;20080;-77
2022/04/23 08:20:20;;;;;;;27.75;24.73;;;16.20;58.20;;;;;;5025270;28;20172;-76
2022/04/23 08:22:46;;;;;;;28.65;25.58;;;16.10;58.50;;;;;;5027576;28;20484;-75
2022/04/23 08:25:12;;;;;;;29.42;25.67;;;16.00;58.70;;;;;;5022168;28;20085;-76
2022/04/23 08:30:51;;;;;;;27.65;24.75;;;15.90;59.00;;;;;;5015409;28;20048;-77
2022/04/23 08:33:16;;;;;;;28.45;25.45;;;16.00;58.50;;;;;;5016274;28;20033;-76
2022/04/23 08:35:42;;;;;;;28.60;25.45;;;16.10;58.00;;;;;;5021147;28;20613;-76
2022/04/23 08:38:08;;;;;;;27.88;24.45;;;16.40;57.60;;;;;;5018522;28;20036;-76
2022/04/23 08:40:40;;;;;;;30.55;26.42;;;16.70;56.80;;;;;;5018912;28;20469;-76
2022/04/23 08:43:06;;;;;;;27.92;24.60;;;16.70;56.70;;;;;;5026018;28;20396;-77
2022/04/23 08:45:35;;;;;;;25.45;22.85;;;16.70;57.10;;;;;;5021604;28;20086;-76
2022/04/23 08:48:06;;;;;;;26.70;23.90;;;17.00;57.10;;;;;;5026171;28;20158;-76
2022/04/23 08:50:34;;;;;;;27.60;24.35;;;17.00;56.30;;;;;;5016274;28;20128;-77
2022/04/23 08:53:02;;;;;;;28.25;24.73;;;17.10;56.30;;;;;;5012298;28;20037;-76
2022/04/23 08:55:29;;;;;;;28.88;25.55;;;17.10;55.90;;;;;;5020988;28;20041;-76
2022/04/23 08:57:55;;;;;;;28.80;25.70;;;17.30;55.70;;;;;;5020754;28;20602;-76
2022/04/23 09:00:22;;;;;;;28.52;25.48;;;17.30;55.40;;;;;;5017592;28;20053;-78
2022/04/23 09:02:47;;;;;;;27.98;23.77;;;17.30;56.10;;;;;;5025013;28;20043;-77
2022/04/23 09:05:14;;;;;;;27.35;24.55;;;17.40;55.00;;;;;;5017960;28;20481;-76
2022/04/23 09:07:51;;;;;;;25.48;22.27;;;17.70;55.10;;;;;;5027822;28;20042;-76
2022/04/23 09:10:16;;;;;;;28.80;25.75;;;17.90;54.00;;;;;;5022382;28;20055;-76
2022/04/23 09:12:56;;;;;;;27.35;24.45;;;17.80;54.10;;;;;;5017585;28;20110;-77
2022/04/23 09:24:09;;;;;;;27.98;25.08;;;17.40;56.50;;;;;;5006853;28;20037;-77
2022/04/23 09:26:35;;;;;;;28.50;25.40;;;17.20;55.60;;;;;;5016752;28;20083;-77
2022/04/23 09:29:12;;;;;;;29.38;26.23;;;17.00;57.60;;;;;;5023917;28;20033;-76
2022/04/23 09:31:38;;;;;;;28.75;25.73;;;17.30;56.30;;;;;;5022826;28;20057;-77
2022/04/23 09:34:15;;;;;;;28.40;25.38;;;17.20;57.60;;;;;;5019258;28;20120;-76
2022/04/23 09:36:48;;;;;;;29.38;26.27;;;17.40;56.70;;;;;;5020054;28;20087;-76
2022/04/23 09:39:13;;;;;;;29.63;26.52;;;17.80;55.00;;;;;;5019921;28;20037;-76
2022/04/23 09:41:39;;;;;;;30.17;25.67;;;17.40;55.10;;;;;;5019878;28;20492;-77
2022/04/23 09:44:07;;;;;;;28.85;25.73;;;17.40;56.50;;;;;;5019112;28;20530;-77
2022/04/23 09:47:02;;;;;;;30.33;27.13;;;17.90;55.30;;;;;;5021083;28;20100;-76
2022/04/23 09:49:28;;;;;;;;;;;18.10;54.70;;;;;;5011462;28;20041;-76
2022/04/23 09:52:05;;;;;;;29.67;26.08;;;18.10;54.70;;;;;;5009750;28;19973;-76
2022/04/23 09:54:32;;;;;;;32.70;27.23;;;17.80;54.70;;;;;;5019271;28;20481;-76
2022/04/23 09:56:59;;;;;;;29.52;26.42;;;17.40;56.40;;;;;;5021557;28;20036;-76
2022/04/23 09:59:25;;;;;;;31.90;26.60;;;17.60;55.30;;;;;;5018359;28;20057;-76
2022/04/23 10:01:52;;;;;;;29.58;26.35;;;18.00;55.60;;;;;;5023916;28;20037;-77
2022/04/23 10:04:22;;;;;;;30.88;26.90;;;18.40;53.90;;;;;;5027539;28;20058;-77
2022/04/23 10:06:51;;;;;;;30.30;26.58;;;18.70;53.20;;;;;;5026639;28;20415;-76
2022/04/23 10:09:20;;;;;;;29.40;24.85;;;18.60;53.10;;;;;;5022008;28;20647;-75
2022/04/23 10:11:49;;;;;;;31.23;27.95;;;19.10;53.20;;;;;;5020428;28;20136;-76
2022/04/23 10:14:20;;;;;;;29.30;26.20;;;19.30;52.30;;;;;;5025359;28;20524;-76
2022/04/23 10:16:48;;;;;;;28.50;25.00;;;19.30;51.60;;;;;;5023299;28;20041;-78
2022/04/23 10:19:15;;;;;;;31.63;26.17;;;19.60;51.20;;;;;;5035251;28;20037;-77
2022/04/23 10:21:50;;;;;;;29.58;26.40;;;19.60;50.80;;;;;;5021931;28;20477;-78
2022/04/23 10:24:47;;;;;;;28.73;25.70;;;19.60;51.90;;;;;;5022761;28;20037;-75
2022/04/23 10:27:15;;;;;;;28.73;25.55;;;19.60;50.70;;;;;;5015682;28;20393;-76
2022/04/23 10:29:41;;;;;;;28.98;23.77;;;19.90;50.80;;;;;;5014418;28;20483;-77
2022/04/23 10:32:13;;;;;;;28.73;25.83;;;20.10;50.70;;;;;;5017585;28;20133;-77
2022/04/23 10:34:40;;;;;;;28.52;25.52;;;20.10;49.80;;;;;;5016380;28;20061;-77
2022/04/23 10:37:27;;;;;;;27.58;24.77;;;19.90;50.40;;;;;;5010794;28;20030;-77
2022/04/23 10:39:52;;;;;;;26.92;24.23;;;19.80;49.80;;;;;;5009969;28;20374;-76
2022/04/23 10:42:25;;;;;;;27.75;24.88;;;20.00;49.20;;;;;;5012692;28;20045;-76
2022/04/23 10:44:54;;;;;;;27.77;24.88;;;19.80;49.80;;;;;;5013092;28;20169;-78
2022/04/23 10:47:36;;;;;;;29.40;26.27;;;19.90;49.50;;;;;;5020993;28;20464;-76
2022/04/23 10:52:40;;;;;;;27.75;24.85;;;19.50;51.60;;;;;;5018217;28;20280;-77
2022/04/23 10:55:10;;;;;;;28.45;25.02;;;19.40;51.30;;;;;;5012199;28;20037;-76
2022/04/23 10:57:38;;;;;;;27.02;24.10;;;19.70;50.20;;;;;;5024224;28;20068;-77
2022/04/23 11:00:12;;;;;;;26.77;24.17;;;19.50;50.90;;;;;;5018002;28;20051;-76
2022/04/23 11:02:39;;;;;;;28.75;24.10;;;19.40;50.50;;;;;;5012405;28;20046;-76
2022/04/23 11:13:39;;;;;;;26.98;24.17;;;20.50;49.70;;;;;;5019517;28;19924;-77
2022/04/23 11:16:17;;;;;;;26.92;24.13;;;20.80;48.40;;;;;;5017467;28;20026;-76
2022/04/23 11:18:52;;;;;;;29.25;24.08;;;20.80;48.20;;;;;;5009767;28;20037;-77
2022/04/23 11:21:29;;;;;;;25.65;22.98;;;20.70;47.80;;;;;;5017530;28;20128;-76
2022/04/23 11:24:00;;;;;;;26.90;24.00;;;20.70;48.10;;;;;;5015664;28;20056;-76
2022/04/23 11:26:44;;;;;;;26.13;23.52;;;20.90;47.60;;;;;;5015892;28;20889;-76
2022/04/23 11:29:10;;;;;;;;;;;20.80;47.80;;;;;;5023066;28;20029;-76
2022/04/23 11:31:36;;;;;;;28.00;24.27;;;21.00;48.40;;;;;;5018166;28;20395;-76
2022/04/23 11:34:03;;;;;;;26.38;23.67;;;21.30;46.40;;;;;;5017369;28;20110;-75
2022/04/23 11:36:34;;;;;;;26.25;23.45;;;21.20;47.10;;;;;;5009983;28;20133;-76
2022/04/23 11:39:04;;;;;;;24.92;22.38;;;21.10;46.60;;;;;;5012191;28;20037;-76
2022/04/23 11:41:50;;;;;;;26.92;22.83;;;20.80;48.20;;;;;;5015607;28;20041;-76
2022/04/23 11:44:21;;;;;;;24.15;21.55;;;21.00;47.50;;;;;;5017888;28;20045;-77
2022/04/23 11:46:50;;;;;;;25.08;22.48;;;21.00;46.80;;;;;;5013706;28;20124;-76
2022/04/23 11:49:30;;;;;;;25.77;23.10;;;21.10;47.50;;;;;;5013591;28;20429;-76
2022/04/23 11:52:04;;;;;;;24.63;22.02;;;21.10;46.90;;;;;;5014679;28;20043;-77
2022/04/23 11:54:31;;;;;;;25.17;22.45;;;21.20;47.00;;;;;;5035917;28;20049;-76
2022/04/23 11:56:58;;;;;;;25.83;21.85;;;21.10;47.50;;;;;;5021137;28;20504;-77
2022/04/23 11:59:23;;;;;;;26.88;24.00;;;21.10;47.30;;;;;;5021137;28;20052;-78
2022/04/23 12:01:49;;;;;;;27.65;23.38;;;21.20;47.40;;;;;;5017011;28;20037;-76
2022/04/23 12:04:14;;;;;;;30.08;23.33;;;21.30;47.30;;;;;;5017519;28;20392;-77
2022/04/23 12:06:42;;;;;;;25.40;21.70;;;21.30;46.30;;;;;;5018810;28;20353;-75
2022/04/23 12:09:08;;;;;;;24.60;22.02;;;21.00;46.00;;;;;;5017148;28;20061;-77
2022/04/23 12:11:34;;;;;;;24.77;21.33;;;20.80;47.10;;;;;;5013467;28;20148;-75
2022/04/23 12:14:04;;;;;;;24.35;21.80;;;21.00;47.40;;;;;;5015434;28;20052;-75
2022/04/23 12:16:40;;;;;;;25.30;22.58;;;21.00;46.90;;;;;;5014661;28;20454;-75
2022/04/23 12:19:07;;;;;;;24.73;22.17;;;21.10;47.00;;;;;;5016489;28;20225;-77
2022/04/23 12:21:34;;;;;;;24.77;22.23;;;21.10;46.80;;;;;;5011698;28;20033;-78
2022/04/23 12:24:00;;;;;;;25.92;22.25;;;21.20;47.30;;;;;;5012982;28;20113;-79
2022/04/23 12:26:37;;;;;;;23.45;21.15;;;21.40;46.70;;;;;;5013196;28;20041;-75
2022/04/23 12:43:15;;;;;;;;;;;21.30;46.00;;;;;;5010190;28;20088;-76
2022/04/23 12:45:40;;;;;;;23.13;18.85;;;21.60;45.80;;;;;;5015126;28;19927;-76
2022/04/23 12:48:07;;;;;;;22.85;18.95;;;22.20;45.00;;;;;;5015331;28;20045;-75
2022/04/23 12:50:33;;;;;;;26.33;20.98;;;22.60;43.30;;;;;;5012309;28;20049;-77
2022/04/23 12:52:59;;;;;;;20.33;18.20;;;22.50;43.10;;;;;;5012245;28;20064;-78
2022/04/23 12:55:29;;;;;;;21.27;18.95;;;22.50;43.60;;;;;;5010111;28;21785;-76
2022/04/23 12:58:05;;;;;;;23.88;17.80;;;22.60;43.80;;;;;;5009612;28;20037;-76
2022/04/23 13:00:34;;;;;;;20.33;18.08;;;22.50;44.30;;;;;;5011386;28;20061;-76
2022/04/23 13:03:12;;;;;;;24.63;17.50;;;22.40;43.10;;;;;;5007949;28;20025;-77
2022/04/23 13:05:38;;;;;;;20.10;17.95;;;22.60;43.10;;;;;;5012991;28;20045;-79
2022/04/23 13:10:49;;;;;;;20.52;18.42;;;22.50;43.10;;;;;;5020396;28;20450;-78
2022/04/23 13:13:15;;;;;;;18.95;16.75;;;22.50;42.90;;;;;;5020073;28;20051;-75
2022/04/23 13:15:40;;;;;;;22.02;17.48;;;22.30;42.60;;;;;;5018474;28;20046;-77
2022/04/23 13:18:06;;;;;;;19.80;17.48;;;22.00;43.10;;;;;;5016554;28;20399;-75